Terminal Aerodrome Forecast
Issued by NWS

Home | Current Version | Previous Version | Text Only | Print | Product List | Glossary On
Versions: 1 2 3 4 5 6 7 8 9 10 11 12 13 14 15
000
FTUS41 KILN 220543
TAFLUK
TAF
KLUK 220543Z 2206/2306 VRB03KT P6SM SCT250
     FM221700 24010G21KT P6SM SHRA VCTS BKN050CB
     FM222300 26009G17KT P6SM BKN045
     FM230400 32008KT P6SM BKN040=

USA.gov is the U.S. government's official web portal to all federal, state and local government web resources and services.